createdAt,value
2019-05-20T00:00:50.018Z,44.12
2019-05-20T00:03:24.051Z,44.14
2019-05-20T00:05:58.196Z,44.18
2019-05-20T00:08:32.601Z,43.96
2019-05-20T00:11:06.813Z,43.59
2019-05-20T00:13:41.343Z,44.20
2019-05-20T00:16:15.417Z,43.99
2019-05-20T00:18:49.790Z,43.64
2019-05-20T00:21:24.188Z,44.61
2019-05-20T00:23:58.434Z,44.66
2019-05-20T00:26:32.824Z,44.64
2019-05-20T00:29:07.147Z,44.69
2019-05-20T00:31:41.450Z,44.70
2019-05-20T00:34:15.732Z,44.72
2019-05-20T00:36:50.159Z,44.70
2019-05-20T00:39:24.083Z,43.74
2019-05-20T00:41:58.241Z,43.48
2019-05-20T00:44:32.393Z,44.37
2019-05-20T00:47:06.458Z,44.47
2019-05-20T00:49:40.682Z,44.54
2019-05-20T00:52:15.233Z,44.61
2019-05-20T00:54:49.341Z,44.68
2019-05-20T00:57:23.326Z,44.74
2019-05-20T00:59:57.287Z,44.61
2019-05-20T01:02:31.231Z,44.18
2019-05-20T01:05:05.346Z,45.33
2019-05-20T01:07:39.273Z,45.92
2019-05-20T01:10:13.511Z,46.03
2019-05-20T01:12:47.491Z,46.06
2019-05-20T01:15:22.066Z,46.38
2019-05-20T01:17:56.135Z,46.60
2019-05-20T01:20:30.209Z,46.76
2019-05-20T01:23:04.364Z,46.55
2019-05-20T01:25:38.447Z,45.88
2019-05-20T01:28:12.652Z,47.16
2019-05-20T01:30:46.819Z,47.59
2019-05-20T01:33:21.023Z,47.73
2019-05-20T01:35:55.535Z,47.86
2019-05-20T01:38:29.641Z,48.00
2019-05-20T01:41:03.778Z,47.66
2019-05-20T01:43:38.037Z,47.89
2019-05-20T01:46:13.044Z,48.11
2019-05-20T01:48:47.167Z,47.27
2019-05-20T01:51:21.234Z,47.13
2019-05-20T01:53:55.412Z,48.18
2019-05-20T01:56:29.659Z,48.24
2019-05-20T01:59:03.817Z,48.29
2019-05-20T02:01:38.107Z,48.30
2019-05-20T02:04:12.250Z,48.38
2019-05-20T02:06:46.451Z,48.36
2019-05-20T02:09:20.396Z,48.36
2019-05-20T02:11:54.463Z,48.05
2019-05-20T02:14:30.812Z,48.21
2019-05-20T02:17:04.979Z,48.29
2019-05-20T02:19:38.942Z,48.37
2019-05-20T02:22:13.059Z,48.36
2019-05-20T02:24:47.306Z,48.47
2019-05-20T02:27:21.414Z,48.47
2019-05-20T02:29:55.601Z,48.45
2019-05-20T02:32:29.927Z,48.50
2019-05-20T02:35:04.102Z,48.50
2019-05-20T02:37:38.245Z,48.50
2019-05-20T02:40:12.643Z,47.99
2019-05-20T02:42:46.630Z,47.17
2019-05-20T02:45:21.015Z,48.06
2019-05-20T02:47:55.125Z,48.47
2019-05-20T02:50:29.472Z,48.52
2019-05-20T02:53:04.150Z,48.55
2019-05-20T02:55:38.435Z,48.62
2019-05-20T02:58:13.190Z,48.65
2019-05-20T03:00:47.362Z,48.64
2019-05-20T03:03:21.560Z,48.11
2019-05-20T03:05:55.968Z,47.49
2019-05-20T03:08:30.066Z,48.51
2019-05-20T03:11:04.467Z,48.36
2019-05-20T03:13:38.538Z,48.52
2019-05-20T03:16:15.612Z,48.44
2019-05-20T03:18:49.103Z,48.40
2019-05-20T03:21:23.357Z,48.36
2019-05-20T03:23:57.828Z,48.04
2019-05-20T03:26:32.249Z,47.42
2019-05-20T03:29:06.454Z,46.99
2019-05-20T03:31:40.455Z,46.34
2019-05-20T03:34:41.581Z,45.49
2019-05-20T03:36:50.546Z,44.85
2019-05-20T03:39:25.080Z,44.44
2019-05-20T03:41:59.169Z,44.17
2019-05-20T03:44:33.414Z,43.95
2019-05-20T03:47:07.571Z,43.77
2019-05-20T03:49:41.614Z,43.70
2019-05-20T03:52:15.615Z,43.63
2019-05-20T03:54:49.843Z,43.54
2019-05-20T03:57:23.949Z,43.44
2019-05-20T03:59:57.996Z,43.40
2019-05-20T04:02:31.820Z,43.26
2019-05-20T04:05:06.224Z,43.15
2019-05-20T04:07:40.324Z,43.03
2019-05-20T04:10:14.611Z,42.96
2019-05-20T04:12:48.773Z,42.95
2019-05-20T04:15:23.008Z,42.90
2019-05-20T04:17:57.127Z,42.90
2019-05-20T04:20:31.485Z,42.88
2019-05-20T04:23:05.703Z,42.75
2019-05-20T04:25:39.745Z,42.74
2019-05-20T04:28:13.762Z,42.70
2019-05-20T04:30:48.138Z,42.63
2019-05-20T04:33:22.250Z,42.63
2019-05-20T04:35:56.556Z,42.58
2019-05-20T04:38:30.486Z,42.55
2019-05-20T04:41:04.634Z,42.52
2019-05-20T04:43:38.876Z,42.42
2019-05-20T04:46:13.118Z,42.42
2019-05-20T04:48:48.325Z,42.39
2019-05-20T04:51:22.402Z,42.34
2019-05-20T04:53:56.569Z,42.31
2019-05-20T04:56:30.771Z,42.23
2019-05-20T04:59:04.994Z,42.17
2019-05-20T05:01:39.282Z,42.10
2019-05-20T05:04:13.455Z,42.06
2019-05-20T05:06:47.693Z,42.01
2019-05-20T05:09:23.108Z,42.03
2019-05-20T05:11:57.276Z,42.03
2019-05-20T05:14:31.282Z,42.01
2019-05-20T05:17:05.715Z,41.93
2019-05-20T05:19:40.020Z,41.85
2019-05-20T05:22:14.229Z,41.84
2019-05-20T05:24:48.785Z,41.71
2019-05-20T05:27:22.959Z,41.72
2019-05-20T05:29:57.448Z,41.71
2019-05-20T05:32:44.871Z,41.66
2019-05-20T05:35:19.786Z,41.61
2019-05-20T05:37:55.107Z,41.61
2019-05-20T05:40:32.552Z,41.57
2019-05-20T05:43:06.926Z,41.50
2019-05-20T05:45:41.038Z,41.42
2019-05-20T05:48:15.114Z,41.26
2019-05-20T05:50:49.596Z,41.21
2019-05-20T05:53:23.760Z,41.19
2019-05-20T05:55:58.246Z,41.24
2019-05-20T05:58:33.327Z,41.30
2019-05-20T06:01:07.658Z,41.32
2019-05-20T06:03:41.870Z,41.28
2019-05-20T06:06:16.270Z,41.16
2019-05-20T06:08:50.403Z,41.15
2019-05-20T06:11:24.757Z,41.12
2019-05-20T06:13:58.783Z,41.08
2019-05-20T06:16:36.487Z,41.06
2019-05-20T06:19:09.436Z,41.02
2019-05-20T06:21:44.288Z,41.01
2019-05-20T06:24:18.220Z,40.98
2019-05-20T06:26:52.857Z,40.92
2019-05-20T06:29:26.848Z,40.92
2019-05-20T06:32:02.125Z,40.82
2019-05-20T06:34:36.209Z,40.80
2019-05-20T06:37:12.586Z,40.71
2019-05-20T06:39:47.065Z,40.75
2019-05-20T06:42:21.352Z,40.70
2019-05-20T06:44:57.406Z,40.70
2019-05-20T06:47:31.663Z,40.59
2019-05-20T06:50:06.036Z,40.57
2019-05-20T06:52:41.316Z,40.48
2019-05-20T06:55:15.876Z,40.51
2019-05-20T06:57:50.090Z,40.47
2019-05-20T07:00:35.692Z,40.45
2019-05-20T07:03:10.087Z,40.39
2019-05-20T07:05:44.355Z,40.36
2019-05-20T07:08:18.597Z,40.36
2019-05-20T07:10:52.893Z,40.13
2019-05-20T07:13:27.251Z,39.86
2019-05-20T07:16:01.506Z,39.97
2019-05-20T07:18:35.579Z,40.04
2019-05-20T07:21:10.407Z,39.97
2019-05-20T07:23:44.518Z,39.97
2019-05-20T07:26:18.565Z,40.02
2019-05-20T07:28:53.848Z,40.02
2019-05-20T07:31:27.809Z,40.01
2019-05-20T07:34:01.869Z,40.00
2019-05-20T07:36:36.220Z,39.95
2019-05-20T07:39:10.732Z,39.98
2019-05-20T07:41:44.970Z,39.97
2019-05-20T07:44:19.747Z,39.93
2019-05-20T07:46:54.772Z,40.01
2019-05-20T07:49:29.420Z,40.36
2019-05-20T07:52:03.615Z,40.67
2019-05-20T07:54:38.548Z,40.90
2019-05-20T07:57:15.960Z,41.09
2019-05-20T07:59:53.335Z,41.19
2019-05-20T08:02:28.831Z,41.41
2019-05-20T08:05:03.657Z,41.64
2019-05-20T08:07:51.314Z,41.90
2019-05-20T08:10:15.119Z,42.11
2019-05-20T08:12:49.404Z,42.26
2019-05-20T08:15:23.947Z,42.42
2019-05-20T08:17:58.565Z,42.59
2019-05-20T08:20:33.037Z,42.77
2019-05-20T08:23:07.299Z,42.93
2019-05-20T08:25:41.708Z,43.14
2019-05-20T08:28:15.984Z,43.24
2019-05-20T08:30:50.365Z,43.37
2019-05-20T08:33:24.617Z,43.46
2019-05-20T08:36:00.157Z,43.60
2019-05-20T08:38:34.413Z,43.68
2019-05-20T08:41:08.917Z,43.82
2019-05-20T08:43:43.282Z,43.85
2019-05-20T08:46:17.714Z,44.09
2019-05-20T08:48:52.184Z,43.88
2019-05-20T08:51:26.244Z,43.63
2019-05-20T08:54:00.443Z,43.36
2019-05-20T08:56:34.816Z,43.14
2019-05-20T08:59:09.295Z,42.96
2019-05-20T09:01:43.678Z,42.84
2019-05-20T09:04:18.217Z,42.58
2019-05-20T09:06:52.807Z,42.46
2019-05-20T09:09:27.609Z,42.32
2019-05-20T09:12:02.495Z,42.18
2019-05-20T09:14:40.253Z,41.66
2019-05-20T09:17:12.875Z,40.73
2019-05-20T09:19:47.626Z,40.21
2019-05-20T09:22:21.742Z,39.76
2019-05-20T09:24:56.467Z,39.46
2019-05-20T09:27:30.886Z,39.27
2019-05-20T09:30:06.209Z,39.04
2019-05-20T09:32:42.958Z,38.77
2019-05-20T09:35:17.997Z,38.49
2019-05-20T09:37:51.954Z,37.89
2019-05-20T09:40:43.557Z,37.50
2019-05-20T09:43:18.202Z,37.19
2019-05-20T09:46:06.311Z,36.84
2019-05-20T09:48:28.689Z,36.47
2019-05-20T09:51:03.344Z,36.08
2019-05-20T09:53:37.720Z,35.86
2019-05-20T09:56:13.332Z,35.63
2019-05-20T09:58:47.651Z,35.21
2019-05-20T10:01:22.621Z,35.00
2019-05-20T10:03:56.737Z,34.81
2019-05-20T10:06:31.122Z,34.60
2019-05-20T10:09:05.802Z,34.42
2019-05-20T10:11:40.276Z,34.25
2019-05-20T10:14:14.732Z,34.21
2019-05-20T10:16:49.088Z,34.09
2019-05-20T10:19:23.534Z,33.99
2019-05-20T10:21:57.794Z,33.86
2019-05-20T10:24:32.174Z,33.82
2019-05-20T10:27:06.403Z,33.80
2019-05-20T10:29:40.596Z,33.72
2019-05-20T10:32:15.140Z,33.55
2019-05-20T10:34:49.269Z,33.51
2019-05-20T10:37:23.049Z,33.43
2019-05-20T10:39:57.103Z,33.40
2019-05-20T10:42:31.301Z,33.30
2019-05-20T10:45:06.188Z,33.28
2019-05-20T10:47:40.281Z,33.30
2019-05-20T10:50:14.592Z,33.23
2019-05-20T10:52:49.782Z,33.21
2019-05-20T10:55:24.506Z,33.16
2019-05-20T10:57:58.843Z,33.18
2019-05-20T11:00:33.637Z,33.64
2019-05-20T11:03:07.756Z,33.47
2019-05-20T11:05:41.903Z,33.39
2019-05-20T11:08:15.962Z,33.44
2019-05-20T11:10:50.519Z,33.27
2019-05-20T11:13:25.665Z,33.23
2019-05-20T11:16:01.146Z,33.17
2019-05-20T11:18:36.472Z,33.60
2019-05-20T11:21:11.408Z,33.47
2019-05-20T11:23:46.359Z,33.26
2019-05-20T11:26:21.800Z,33.07
2019-05-20T11:28:57.187Z,33.02
2019-05-20T11:31:33.044Z,33.20
2019-05-20T11:34:08.516Z,33.29
2019-05-20T11:36:44.268Z,33.20
2019-05-20T11:39:32.385Z,33.18
2019-05-20T11:41:55.678Z,33.01
2019-05-20T11:44:31.156Z,33.09
2019-05-20T11:47:06.220Z,33.06
2019-05-20T11:49:40.966Z,33.16
2019-05-20T11:52:16.692Z,33.06
2019-05-20T11:54:51.468Z,33.03
2019-05-20T11:57:26.493Z,32.88
2019-05-20T12:00:01.733Z,32.79
2019-05-20T12:02:37.210Z,33.04
2019-05-20T12:05:12.556Z,32.95
2019-05-20T12:07:47.597Z,32.89
2019-05-20T12:10:22.992Z,32.88
2019-05-20T12:12:58.075Z,33.01
2019-05-20T12:15:33.178Z,32.82
2019-05-20T12:18:08.402Z,32.96
2019-05-20T12:20:43.738Z,32.92
2019-05-20T12:23:18.797Z,32.89
2019-05-20T12:25:53.373Z,32.77
2019-05-20T12:28:27.537Z,32.62
2019-05-20T12:31:02.875Z,32.70
2019-05-20T12:33:37.443Z,33.09
2019-05-20T12:36:12.060Z,32.79
2019-05-20T12:38:46.771Z,32.92
2019-05-20T12:41:21.237Z,32.90
2019-05-20T12:44:10.853Z,32.81
2019-05-20T12:46:33.321Z,33.13
2019-05-20T12:49:07.823Z,33.01
2019-05-20T12:51:44.150Z,33.00
2019-05-20T12:54:19.254Z,32.88
2019-05-20T12:56:53.822Z,33.27
2019-05-20T12:59:28.360Z,33.17
2019-05-20T13:02:02.667Z,33.17
2019-05-20T13:04:38.439Z,33.17
2019-05-20T13:07:13.143Z,33.37
2019-05-20T13:09:47.955Z,33.30
2019-05-20T13:12:22.954Z,33.30
2019-05-20T13:14:57.778Z,32.96
2019-05-20T13:17:32.659Z,32.34
2019-05-20T13:20:07.663Z,32.30
2019-05-20T13:22:42.260Z,32.22
2019-05-20T13:25:16.753Z,32.12
2019-05-20T13:27:51.537Z,32.22
2019-05-20T13:30:26.068Z,31.89
2019-05-20T13:33:00.359Z,31.27
2019-05-20T13:35:35.355Z,30.92
2019-05-20T13:38:10.028Z,31.02
2019-05-20T13:40:47.133Z,31.11
2019-05-20T13:43:21.554Z,31.72
2019-05-20T13:45:55.974Z,31.93
2019-05-20T13:48:30.103Z,32.05
2019-05-20T13:51:04.490Z,32.21
2019-05-20T13:53:38.855Z,32.38
2019-05-20T13:56:13.198Z,32.83
2019-05-20T13:58:47.212Z,33.22
2019-05-20T14:01:21.538Z,33.42
2019-05-20T14:03:57.232Z,33.74
2019-05-20T14:06:32.312Z,34.00
2019-05-20T14:09:07.787Z,34.20
2019-05-20T14:11:42.796Z,34.33
2019-05-20T14:14:17.242Z,34.54
2019-05-20T14:16:51.290Z,34.67
2019-05-20T14:19:25.756Z,34.81
2019-05-20T14:22:00.552Z,34.89
2019-05-20T14:24:34.792Z,35.02
2019-05-20T14:27:08.759Z,35.11
2019-05-20T14:29:42.659Z,35.22
2019-05-20T14:32:16.930Z,35.35
2019-05-20T14:34:51.175Z,35.50
2019-05-20T14:37:25.325Z,35.60
2019-05-20T14:39:59.529Z,35.71
2019-05-20T14:42:33.517Z,35.80
2019-05-20T14:45:08.420Z,35.91
2019-05-20T14:47:42.387Z,36.01
2019-05-20T14:50:16.812Z,36.08
2019-05-20T14:52:51.674Z,36.23
2019-05-20T14:55:25.945Z,36.23
2019-05-20T14:57:59.894Z,36.33
2019-05-20T15:00:34.252Z,36.33
2019-05-20T15:03:08.331Z,36.33
2019-05-20T15:05:45.258Z,36.53
2019-05-20T15:08:19.513Z,36.64
2019-05-20T15:10:54.634Z,36.69
2019-05-20T15:13:29.690Z,36.74
2019-05-20T15:16:04.060Z,36.79
2019-05-20T15:18:38.285Z,36.75
2019-05-20T15:21:12.495Z,36.77
2019-05-20T15:23:46.889Z,36.82
2019-05-20T15:26:21.182Z,36.96
2019-05-20T15:28:55.234Z,36.96
2019-05-20T15:31:29.325Z,36.93
2019-05-20T15:34:03.562Z,36.97
2019-05-20T15:36:37.579Z,37.04
2019-05-20T15:39:11.730Z,37.08
2019-05-20T15:41:46.160Z,37.15
2019-05-20T15:44:20.570Z,37.17
2019-05-20T15:46:54.554Z,37.39
2019-05-20T15:49:29.274Z,37.45
2019-05-20T15:52:03.269Z,37.63
2019-05-20T15:54:37.776Z,36.75
2019-05-20T15:57:11.730Z,35.81
2019-05-20T15:59:46.829Z,34.90
2019-05-20T16:02:21.111Z,34.08
2019-05-20T16:04:55.296Z,33.37
2019-05-20T16:07:30.870Z,32.69
2019-05-20T16:10:05.120Z,32.03
2019-05-20T16:12:39.311Z,31.40
2019-05-20T16:15:13.680Z,30.88
2019-05-20T16:17:48.600Z,30.97
2019-05-20T16:20:23.007Z,33.74
2019-05-20T16:22:57.377Z,35.04
2019-05-20T16:25:31.282Z,34.25
2019-05-20T16:28:05.710Z,33.96
2019-05-20T16:30:39.644Z,33.64
2019-05-20T16:33:13.703Z,33.19
2019-05-20T16:35:48.045Z,32.71
2019-05-20T16:38:22.431Z,33.34
2019-05-20T16:40:56.355Z,32.67
2019-05-20T16:43:30.655Z,32.16
2019-05-20T16:46:04.910Z,31.60
2019-05-20T16:48:39.066Z,31.25
2019-05-20T16:51:13.421Z,30.80
2019-05-20T16:53:47.560Z,30.31
2019-05-20T16:56:21.780Z,29.90
2019-05-20T16:58:55.948Z,29.53
2019-05-20T17:01:30.429Z,29.41
2019-05-20T17:04:04.532Z,29.16
2019-05-20T17:06:38.562Z,28.92
2019-05-20T17:09:12.643Z,28.67
2019-05-20T17:11:47.002Z,28.46
2019-05-20T17:14:21.446Z,28.30
2019-05-20T17:16:55.455Z,28.16
2019-05-20T17:19:30.332Z,28.00
2019-05-20T17:22:04.557Z,27.83
2019-05-20T17:24:38.662Z,27.75
2019-05-20T17:27:12.925Z,27.60
2019-05-20T17:29:47.341Z,27.52
2019-05-20T17:32:21.390Z,27.51
2019-05-20T17:34:55.684Z,27.43
2019-05-20T17:37:29.773Z,27.36
2019-05-20T17:40:03.973Z,27.36
2019-05-20T17:42:37.955Z,27.30
2019-05-20T17:45:13.319Z,27.23
2019-05-20T17:47:47.674Z,27.21
2019-05-20T17:50:23.753Z,27.15
2019-05-20T17:52:57.850Z,27.07
2019-05-20T17:55:32.289Z,27.06
2019-05-20T17:58:06.687Z,27.05
2019-05-20T18:00:40.883Z,27.02
2019-05-20T18:03:15.066Z,27.02
2019-05-20T18:05:49.471Z,27.08
2019-05-20T18:08:25.049Z,27.03
2019-05-20T18:10:59.284Z,28.35
2019-05-20T18:13:33.447Z,27.95
2019-05-20T18:16:07.533Z,27.67
2019-05-20T18:18:42.868Z,27.45
2019-05-20T18:21:16.827Z,27.34
2019-05-20T18:23:50.825Z,27.21
2019-05-20T18:26:25.120Z,27.12
2019-05-20T18:28:59.248Z,26.98
2019-05-20T18:31:33.588Z,26.94
2019-05-20T18:34:07.825Z,26.92
2019-05-20T18:36:42.235Z,26.97
2019-05-20T18:39:16.775Z,27.06
2019-05-20T18:41:51.024Z,27.09
2019-05-20T18:44:25.243Z,27.09
2019-05-20T18:46:59.062Z,27.18
2019-05-20T18:49:33.303Z,27.24
2019-05-20T18:52:07.546Z,27.32
2019-05-20T18:54:42.047Z,27.37
2019-05-20T18:57:16.177Z,27.40
2019-05-20T18:59:50.147Z,27.43
2019-05-20T19:02:24.225Z,27.49
2019-05-20T19:04:58.465Z,27.46
2019-05-20T19:07:32.393Z,27.41
2019-05-20T19:10:06.665Z,27.33
2019-05-20T19:12:40.901Z,27.23
2019-05-20T19:15:16.153Z,27.24
2019-05-20T19:17:50.295Z,27.22
2019-05-20T19:20:24.311Z,27.18
2019-05-20T19:22:58.571Z,27.32
2019-05-20T19:25:38.034Z,27.32
2019-05-20T19:28:11.829Z,27.30
2019-05-20T19:30:46.046Z,27.33
2019-05-20T19:33:20.349Z,27.38
2019-05-20T19:35:54.361Z,27.38
2019-05-20T19:38:32.842Z,27.36
2019-05-20T19:41:04.596Z,27.36
2019-05-20T19:43:39.226Z,27.40
2019-05-20T19:46:13.429Z,27.38
2019-05-20T19:48:47.410Z,27.44
2019-05-20T19:51:21.413Z,27.45
2019-05-20T19:53:55.541Z,27.46
2019-05-20T19:56:29.727Z,27.48
2019-05-20T19:59:03.846Z,27.47
2019-05-20T20:01:38.016Z,27.73
2019-05-20T20:04:12.157Z,28.76
2019-05-20T20:06:46.378Z,28.52
2019-05-20T20:09:20.364Z,29.43
2019-05-20T20:11:54.715Z,30.55
2019-05-20T20:14:28.576Z,30.93
2019-05-20T20:17:02.623Z,31.16
2019-05-20T20:19:36.877Z,31.28
2019-05-20T20:22:11.119Z,31.43
2019-05-20T20:24:45.313Z,31.47
2019-05-20T20:27:19.641Z,31.58
2019-05-20T20:29:53.752Z,31.64
2019-05-20T20:32:37.559Z,31.67
2019-05-20T20:35:03.899Z,31.99
2019-05-20T20:37:37.931Z,34.01
2019-05-20T20:40:12.340Z,35.45
2019-05-20T20:42:46.391Z,35.06
2019-05-20T20:45:21.974Z,34.37
2019-05-20T20:47:56.245Z,33.94
2019-05-20T20:50:30.517Z,33.57
2019-05-20T20:53:04.467Z,33.20
2019-05-20T20:55:38.727Z,33.15
2019-05-20T20:58:12.950Z,33.08
2019-05-20T21:00:47.709Z,32.92
2019-05-20T21:03:21.563Z,32.87
2019-05-20T21:05:55.953Z,33.45
2019-05-20T21:08:29.894Z,33.60
2019-05-20T21:11:04.463Z,33.60
2019-05-20T21:13:38.522Z,33.56
2019-05-20T21:16:12.533Z,33.51
2019-05-20T21:18:46.722Z,33.36
2019-05-20T21:21:20.845Z,33.30
2019-05-20T21:23:54.888Z,32.84
2019-05-20T21:26:28.913Z,34.34
2019-05-20T21:29:03.819Z,36.10
2019-05-20T21:31:37.928Z,37.48
2019-05-20T21:34:12.036Z,38.50
2019-05-20T21:36:48.091Z,39.27
2019-05-20T21:39:21.711Z,39.88
2019-05-20T21:41:56.360Z,38.86
2019-05-20T21:44:30.394Z,37.98
2019-05-20T21:47:04.450Z,37.21
2019-05-20T21:49:38.293Z,36.67
2019-05-20T21:52:12.477Z,36.21
2019-05-20T21:54:47.451Z,35.85
2019-05-20T21:57:22.054Z,35.55
2019-05-20T21:59:56.404Z,35.57
2019-05-20T22:02:30.552Z,35.89
2019-05-20T22:05:04.790Z,37.38
2019-05-20T22:07:39.460Z,38.51
2019-05-20T22:10:13.843Z,39.35
2019-05-20T22:12:47.772Z,40.03
2019-05-20T22:15:24.076Z,40.54
2019-05-20T22:17:58.139Z,41.11
2019-05-20T22:20:32.610Z,41.54
2019-05-20T22:23:43.692Z,42.11
2019-05-20T22:26:17.518Z,42.56
2019-05-20T22:28:51.729Z,43.00
2019-05-20T22:31:25.614Z,43.28
2019-05-20T22:33:59.826Z,43.21
2019-05-20T22:36:34.139Z,43.50
2019-05-20T22:39:09.572Z,43.71
2019-05-20T22:41:43.529Z,43.94
2019-05-20T22:44:17.857Z,44.08
2019-05-20T22:46:52.274Z,44.20
2019-05-20T22:49:26.484Z,44.30
2019-05-20T22:52:00.530Z,44.43
2019-05-20T22:54:34.764Z,44.51
2019-05-20T22:57:08.799Z,44.58
2019-05-20T22:59:43.178Z,44.75
2019-05-20T23:02:17.255Z,44.83
2019-05-20T23:04:51.552Z,44.85
2019-05-20T23:07:25.631Z,45.01
2019-05-20T23:10:00.010Z,45.10
2019-05-20T23:12:34.118Z,45.16
2019-05-20T23:15:08.362Z,45.24
2019-05-20T23:17:43.087Z,45.31
2019-05-20T23:20:17.541Z,45.40
2019-05-20T23:22:51.700Z,45.50
2019-05-20T23:25:26.208Z,45.53
2019-05-20T23:28:00.563Z,45.58
2019-05-20T23:30:35.816Z,45.65
2019-05-20T23:33:09.883Z,45.43
2019-05-20T23:35:44.097Z,45.65
2019-05-20T23:38:18.400Z,45.63
2019-05-20T23:40:52.394Z,45.56
2019-05-20T23:43:26.260Z,45.54
2019-05-20T23:46:00.322Z,45.58
2019-05-20T23:48:34.515Z,45.30
2019-05-20T23:51:08.789Z,43.63
2019-05-20T23:53:42.709Z,42.66
2019-05-20T23:56:16.962Z,43.22
2019-05-20T23:58:51.247Z,42.56
